createdAt,value
2023-12-09T00:02:20.719Z,1.01
2023-12-09T00:04:50.205Z,0.97
2023-12-09T00:07:18.295Z,1.08
2023-12-09T00:09:46.454Z,0.94
2023-12-09T00:12:14.716Z,0.95
2023-12-09T00:14:42.732Z,1.04
2023-12-09T00:17:10.838Z,1.04
2023-12-09T00:19:42.665Z,1.00
2023-12-09T00:22:12.568Z,0.97
2023-12-09T00:24:41.621Z,0.91
2023-12-09T00:27:09.792Z,0.94
2023-12-09T00:29:38.382Z,1.01
2023-12-09T00:32:07.243Z,1.03
2023-12-09T00:34:36.636Z,1.00
2023-12-09T00:37:07.912Z,1.01
2023-12-09T00:39:37.399Z,1.02
2023-12-09T00:42:06.401Z,0.97
2023-12-09T00:44:36.784Z,1.02
2023-12-09T00:47:05.441Z,1.01
2023-12-09T00:49:34.261Z,0.99
2023-12-09T00:52:02.332Z,1.00
2023-12-09T00:54:30.707Z,0.91
2023-12-09T00:57:00.165Z,0.96
2023-12-09T00:59:28.282Z,1.03
2023-12-09T01:01:56.645Z,1.04
2023-12-09T01:04:24.659Z,0.93
2023-12-09T01:06:53.076Z,0.93
2023-12-09T01:09:21.300Z,1.16
2023-12-09T01:11:50.566Z,0.97
2023-12-09T01:14:21.574Z,0.97
2023-12-09T01:16:49.574Z,1.03
2023-12-09T01:19:17.624Z,1.07
2023-12-09T01:21:45.818Z,1.10
2023-12-09T01:24:14.271Z,1.02
2023-12-09T01:26:42.284Z,1.08
2023-12-09T01:29:11.601Z,1.02
2023-12-09T01:31:40.892Z,1.14
2023-12-09T01:34:09.475Z,1.16
2023-12-09T01:36:37.617Z,1.11
2023-12-09T01:39:05.784Z,1.18
2023-12-09T01:41:33.888Z,1.08
2023-12-09T01:44:01.870Z,1.08
2023-12-09T01:46:30.389Z,1.14
2023-12-09T01:49:00.595Z,1.16
2023-12-09T01:51:29.684Z,1.17
2023-12-09T01:53:57.932Z,1.12
2023-12-09T01:56:26.088Z,1.07
2023-12-09T01:58:54.269Z,1.18
2023-12-09T02:01:22.255Z,1.15
2023-12-09T02:03:52.677Z,1.13
2023-12-09T02:06:22.378Z,1.15
2023-12-09T02:08:50.636Z,1.18
2023-12-09T02:11:25.666Z,1.09
2023-12-09T02:14:00.587Z,1.15
2023-12-09T02:16:36.990Z,1.27
2023-12-09T02:19:07.188Z,1.09
2023-12-09T02:22:04.815Z,1.12
2023-12-09T02:24:35.674Z,1.20
2023-12-09T02:27:09.485Z,1.25
2023-12-09T02:29:46.212Z,1.21
2023-12-09T02:32:16.447Z,1.15
2023-12-09T02:34:45.917Z,1.18
2023-12-09T02:37:14.995Z,1.25
2023-12-09T02:39:45.703Z,1.34
2023-12-09T02:42:15.113Z,1.31
2023-12-09T02:44:44.706Z,1.26
2023-12-09T02:47:16.059Z,1.26
2023-12-09T02:49:44.412Z,1.23
2023-12-09T02:52:13.099Z,1.24
2023-12-09T02:54:41.567Z,1.30
2023-12-09T02:57:11.292Z,1.22
2023-12-09T02:59:39.367Z,1.28
2023-12-09T03:02:07.665Z,1.22
2023-12-09T03:04:36.360Z,1.16
2023-12-09T03:07:04.750Z,1.17
2023-12-09T03:09:32.873Z,1.20
2023-12-09T03:12:01.094Z,1.17
2023-12-09T03:14:30.609Z,1.35
2023-12-09T03:16:58.701Z,1.19
2023-12-09T03:19:27.045Z,1.21
2023-12-09T03:21:55.030Z,1.23
2023-12-09T03:24:23.158Z,1.29
2023-12-09T03:26:52.059Z,1.38
2023-12-09T03:29:20.577Z,1.25
2023-12-09T03:31:50.702Z,1.20
2023-12-09T03:34:19.276Z,1.23
2023-12-09T03:36:47.776Z,1.25
2023-12-09T03:39:16.803Z,1.40
2023-12-09T03:41:44.820Z,1.19
2023-12-09T03:44:13.033Z,1.26
2023-12-09T03:46:41.060Z,1.22
2023-12-09T03:49:10.611Z,1.28
2023-12-09T03:51:37.876Z,1.40
2023-12-09T03:54:06.105Z,1.28
2023-12-09T03:56:34.278Z,1.27
2023-12-09T03:59:02.490Z,1.31
2023-12-09T04:03:59.432Z,1.40
2023-12-09T04:06:28.834Z,1.38
2023-12-09T04:08:57.069Z,1.30
2023-12-09T04:11:25.291Z,1.27
2023-12-09T04:13:53.290Z,1.32
2023-12-09T04:16:21.438Z,1.26
2023-12-09T04:18:49.831Z,1.35
2023-12-09T04:21:19.214Z,1.39
2023-12-09T04:23:48.963Z,1.33
2023-12-09T04:26:16.926Z,1.25
2023-12-09T04:28:44.889Z,1.46
2023-12-09T04:31:12.962Z,1.34
2023-12-09T04:33:41.764Z,1.29
2023-12-09T04:36:10.517Z,1.35
2023-12-09T04:38:38.618Z,1.34
2023-12-09T04:41:08.453Z,1.26
2023-12-09T04:43:36.523Z,1.31
2023-12-09T04:46:04.920Z,1.29
2023-12-09T04:48:33.005Z,1.33
2023-12-09T04:51:01.153Z,1.35
2023-12-09T04:53:29.677Z,1.36
2023-12-09T04:55:57.729Z,1.36
2023-12-09T04:58:27.204Z,1.47
2023-12-09T05:00:55.379Z,1.39
2023-12-09T05:03:23.798Z,1.37
2023-12-09T05:05:52.510Z,1.51
2023-12-09T05:08:20.788Z,1.55
2023-12-09T05:10:49.298Z,1.45
2023-12-09T05:13:17.238Z,1.44
2023-12-09T05:15:46.758Z,1.37
2023-12-09T05:18:14.929Z,1.38
2023-12-09T05:20:43.309Z,1.44
2023-12-09T05:23:12.465Z,1.47
2023-12-09T05:25:40.420Z,1.54
2023-12-09T05:28:08.784Z,1.52
2023-12-09T05:30:37.298Z,1.49
2023-12-09T05:33:07.014Z,1.50
2023-12-09T05:35:35.089Z,1.50
2023-12-09T05:38:03.381Z,1.58
2023-12-09T05:40:34.271Z,1.56
2023-12-09T05:43:03.821Z,1.53
2023-12-09T05:45:31.839Z,1.56
2023-12-09T05:48:00.091Z,1.54
2023-12-09T05:50:29.550Z,1.51
2023-12-09T05:52:58.497Z,1.51
2023-12-09T05:55:28.165Z,1.54
2023-12-09T05:57:56.160Z,1.55
2023-12-09T06:00:24.566Z,1.55
2023-12-09T06:02:52.834Z,1.52
2023-12-09T06:05:20.844Z,1.53
2023-12-09T06:07:50.170Z,1.56
2023-12-09T06:10:18.229Z,1.64
2023-12-09T06:12:46.161Z,1.71
2023-12-09T06:15:14.164Z,1.77
2023-12-09T06:17:42.156Z,1.75
2023-12-09T06:20:11.012Z,1.72
2023-12-09T06:22:39.005Z,1.75
2023-12-09T06:25:10.149Z,1.76
2023-12-09T06:27:38.615Z,1.80
2023-12-09T06:30:08.036Z,1.85
2023-12-09T06:32:36.033Z,1.82
2023-12-09T06:35:04.056Z,1.82
2023-12-09T06:37:31.971Z,1.82
2023-12-09T06:40:00.355Z,1.83
2023-12-09T06:42:30.951Z,1.85
2023-12-09T06:44:59.089Z,1.93
2023-12-09T06:47:27.762Z,1.89
2023-12-09T06:49:55.845Z,1.94
2023-12-09T06:52:24.142Z,1.99
2023-12-09T06:54:52.286Z,2.12
2023-12-09T06:57:20.713Z,2.11
2023-12-09T06:59:50.042Z,2.04
2023-12-09T07:02:17.966Z,2.08
2023-12-09T07:04:45.952Z,2.16
2023-12-09T07:07:21.338Z,2.11
2023-12-09T07:09:50.282Z,2.06
2023-12-09T07:12:18.233Z,2.08
2023-12-09T07:14:46.446Z,2.05
2023-12-09T07:17:15.761Z,2.18
2023-12-09T07:19:44.021Z,2.17
2023-12-09T07:22:11.999Z,2.18
2023-12-09T07:24:40.030Z,2.43
2023-12-09T07:27:08.044Z,2.38
2023-12-09T07:29:36.387Z,2.32
2023-12-09T07:32:05.355Z,2.30
2023-12-09T07:34:34.901Z,2.21
2023-12-09T07:37:02.900Z,2.40
2023-12-09T07:39:30.903Z,2.31
2023-12-09T07:41:59.045Z,2.43
2023-12-09T07:44:27.117Z,2.53
2023-12-09T07:46:55.010Z,2.71
2023-12-09T07:49:23.036Z,2.81
2023-12-09T07:51:52.573Z,2.74
2023-12-09T07:54:20.624Z,2.52
2023-12-09T07:56:48.665Z,2.56
2023-12-09T07:59:16.577Z,2.54
2023-12-09T08:01:44.534Z,2.47
2023-12-09T08:04:12.873Z,2.60
2023-12-09T08:06:41.216Z,2.55
2023-12-09T08:09:10.933Z,2.60
2023-12-09T08:11:38.936Z,2.73
2023-12-09T08:14:09.665Z,2.84
2023-12-09T08:16:38.792Z,2.70
2023-12-09T08:19:06.816Z,2.67
2023-12-09T08:21:37.886Z,2.63
2023-12-09T08:24:06.469Z,2.72
2023-12-09T08:26:36.163Z,2.82
2023-12-09T08:29:05.060Z,2.69
2023-12-09T08:31:33.511Z,2.71
2023-12-09T08:34:01.591Z,2.89
2023-12-09T08:36:29.671Z,2.87
2023-12-09T08:38:57.825Z,2.82
2023-12-09T08:41:27.408Z,2.96
2023-12-09T08:43:58.632Z,2.95
2023-12-09T08:46:26.666Z,2.77
2023-12-09T08:48:55.218Z,2.79
2023-12-09T08:51:23.720Z,2.88
2023-12-09T08:53:51.852Z,2.78
2023-12-09T08:56:19.862Z,2.83
2023-12-09T08:58:47.878Z,2.97
2023-12-09T09:01:17.266Z,3.07
2023-12-09T09:03:45.671Z,2.98
2023-12-09T09:06:13.831Z,2.91
2023-12-09T09:08:41.838Z,3.05
2023-12-09T09:11:11.040Z,3.11
2023-12-09T09:13:39.628Z,2.98
2023-12-09T09:16:08.262Z,3.05
2023-12-09T09:18:37.861Z,3.06
2023-12-09T09:21:08.839Z,3.06
2023-12-09T09:23:36.892Z,3.06
2023-12-09T09:26:05.718Z,3.08
2023-12-09T09:28:33.666Z,3.21
2023-12-09T09:31:01.653Z,3.30
2023-12-09T09:33:32.007Z,3.38
2023-12-09T09:36:01.663Z,3.42
2023-12-09T09:38:29.637Z,3.35
2023-12-09T09:40:58.146Z,3.52
2023-12-09T09:43:30.848Z,3.48
2023-12-09T09:45:59.154Z,3.45
2023-12-09T09:48:27.741Z,3.45
2023-12-09T09:50:59.067Z,3.40
2023-12-09T09:53:36.549Z,3.50
2023-12-09T09:56:07.519Z,3.34
2023-12-09T09:58:36.829Z,3.37
2023-12-09T10:01:07.462Z,3.55
2023-12-09T10:03:35.640Z,3.72
2023-12-09T10:06:05.462Z,3.68
2023-12-09T10:08:34.927Z,3.70
2023-12-09T10:11:02.935Z,3.65
2023-12-09T10:13:30.856Z,3.65
2023-12-09T10:15:58.785Z,3.43
2023-12-09T10:18:26.925Z,3.40
2023-12-09T10:20:55.029Z,3.50
2023-12-09T10:23:23.404Z,3.51
2023-12-09T10:25:52.738Z,3.62
2023-12-09T10:28:21.613Z,3.62
2023-12-09T10:30:49.736Z,3.79
2023-12-09T10:33:17.908Z,3.73
2023-12-09T10:35:46.367Z,3.73
2023-12-09T10:38:17.395Z,3.78
2023-12-09T10:40:45.797Z,3.78
2023-12-09T10:43:16.484Z,3.80
2023-12-09T10:45:44.802Z,3.80
2023-12-09T10:48:12.857Z,3.65
2023-12-09T10:50:45.939Z,3.82
2023-12-09T10:53:13.910Z,3.76
2023-12-09T10:55:42.724Z,3.83
2023-12-09T10:58:12.918Z,3.78
2023-12-09T11:00:43.844Z,4.04
2023-12-09T11:03:12.498Z,3.97
2023-12-09T11:05:46.723Z,4.08
2023-12-09T11:08:15.908Z,4.03
2023-12-09T11:10:44.269Z,4.02
2023-12-09T11:13:13.412Z,4.20
2023-12-09T11:15:42.950Z,4.10
2023-12-09T11:18:12.817Z,4.11
2023-12-09T11:20:43.001Z,4.07
2023-12-09T11:23:12.371Z,4.06
2023-12-09T11:25:42.005Z,4.15
2023-12-09T11:28:11.946Z,4.20
2023-12-09T11:30:43.449Z,4.10
2023-12-09T11:33:12.093Z,4.17
2023-12-09T11:35:40.718Z,4.29
2023-12-09T11:38:10.526Z,4.40
2023-12-09T11:40:38.502Z,4.34
2023-12-09T11:43:07.647Z,4.56
2023-12-09T11:45:37.725Z,4.48
2023-12-09T11:48:08.061Z,4.53
2023-12-09T11:50:36.541Z,4.39
2023-12-09T11:53:04.553Z,4.68
2023-12-09T11:55:32.529Z,4.72
2023-12-09T11:58:00.506Z,4.69
2023-12-09T12:00:28.882Z,4.70
2023-12-09T12:02:56.859Z,4.76
2023-12-09T12:05:26.430Z,4.71
2023-12-09T12:07:57.053Z,4.85
2023-12-09T12:10:26.036Z,4.70
2023-12-09T12:12:54.121Z,4.85
2023-12-09T12:15:22.304Z,4.70
2023-12-09T12:17:50.595Z,4.77
2023-12-09T12:20:18.767Z,4.82
2023-12-09T12:22:50.109Z,4.83
2023-12-09T12:25:18.585Z,4.81
2023-12-09T12:27:47.159Z,4.86
2023-12-09T12:30:16.143Z,4.78
2023-12-09T12:32:45.048Z,4.90
2023-12-09T12:35:13.423Z,5.01
2023-12-09T12:37:41.625Z,5.07
2023-12-09T12:40:12.436Z,5.07
2023-12-09T12:42:40.718Z,4.98
2023-12-09T12:45:19.636Z,4.99
2023-12-09T12:47:48.004Z,5.08
2023-12-09T12:50:17.481Z,5.12
2023-12-09T12:52:46.822Z,4.99
2023-12-09T12:55:16.402Z,5.02
2023-12-09T12:57:45.197Z,4.89
2023-12-09T13:00:15.775Z,4.99
2023-12-09T13:02:44.116Z,4.92
2023-12-09T13:05:12.598Z,4.98
2023-12-09T13:07:40.892Z,5.22
2023-12-09T13:10:10.001Z,5.28
2023-12-09T13:12:39.651Z,5.09
2023-12-09T13:15:09.760Z,5.08
2023-12-09T13:17:38.245Z,5.13
2023-12-09T13:20:07.939Z,5.19
2023-12-09T13:22:36.918Z,5.22
2023-12-09T13:25:06.811Z,5.40
2023-12-09T13:27:35.405Z,5.36
2023-12-09T13:30:07.880Z,5.34
2023-12-09T13:32:37.298Z,5.59
2023-12-09T13:35:06.827Z,5.65
2023-12-09T13:37:35.789Z,5.72
2023-12-09T13:40:04.804Z,5.69
2023-12-09T13:42:33.493Z,5.62
2023-12-09T13:45:01.798Z,5.58
2023-12-09T13:47:31.860Z,5.33
2023-12-09T13:50:00.296Z,5.19
2023-12-09T13:52:31.989Z,5.10
2023-12-09T13:55:00.737Z,4.99
2023-12-09T13:57:29.030Z,4.88
2023-12-09T13:59:57.310Z,5.01
2023-12-09T14:02:25.522Z,4.95
2023-12-09T14:04:55.432Z,4.95
2023-12-09T14:07:24.557Z,4.85
2023-12-09T14:09:52.886Z,4.87
2023-12-09T14:12:21.047Z,4.87
2023-12-09T14:14:49.365Z,4.69
2023-12-09T14:17:17.626Z,4.73
2023-12-09T14:19:45.851Z,4.70
2023-12-09T14:22:15.881Z,4.70
2023-12-09T14:24:43.947Z,4.71
2023-12-09T14:27:15.215Z,4.53
2023-12-09T14:29:43.406Z,4.53
2023-12-09T14:32:11.385Z,4.35
2023-12-09T14:34:39.872Z,4.37
2023-12-09T14:37:08.568Z,4.29
2023-12-09T14:39:38.303Z,4.24
2023-12-09T14:42:06.985Z,4.24
2023-12-09T14:44:35.199Z,4.20
2023-12-09T14:47:03.369Z,4.09
2023-12-09T14:49:31.576Z,4.17
2023-12-09T14:51:59.793Z,4.07
2023-12-09T14:54:27.936Z,4.00
2023-12-09T14:56:57.721Z,4.06
2023-12-09T14:59:26.341Z,3.87
2023-12-09T15:01:54.699Z,3.84
2023-12-09T15:04:22.865Z,3.87
2023-12-09T15:06:52.263Z,3.78
2023-12-09T15:09:20.522Z,3.82
2023-12-09T15:11:49.557Z,3.67
2023-12-09T15:14:19.268Z,3.62
2023-12-09T15:16:47.447Z,3.61
2023-12-09T15:19:15.830Z,3.59
2023-12-09T15:21:44.312Z,3.56
2023-12-09T15:24:12.848Z,3.43
2023-12-09T15:26:41.433Z,3.36
2023-12-09T15:29:09.482Z,3.39
2023-12-09T15:31:39.012Z,3.42
2023-12-09T15:34:07.334Z,3.28
2023-12-09T15:36:35.814Z,3.23
2023-12-09T15:39:04.831Z,3.20
2023-12-09T15:41:34.225Z,3.15
2023-12-09T15:44:02.436Z,3.15
2023-12-09T15:46:30.895Z,3.10
2023-12-09T15:49:02.147Z,3.15
2023-12-09T15:51:30.336Z,3.16
2023-12-09T15:53:58.404Z,3.08
2023-12-09T15:56:26.896Z,3.14
2023-12-09T15:58:55.432Z,3.02
2023-12-09T16:01:23.914Z,2.98
2023-12-09T16:03:53.303Z,2.99
2023-12-09T16:06:22.916Z,2.98
2023-12-09T16:08:51.343Z,2.95
2023-12-09T16:11:19.755Z,2.93
2023-12-09T16:13:47.808Z,2.89
2023-12-09T16:16:16.390Z,2.91
2023-12-09T16:18:44.542Z,2.94
2023-12-09T16:21:12.718Z,2.89
2023-12-09T16:23:42.202Z,2.88
2023-12-09T16:26:12.010Z,2.86
2023-12-09T16:28:40.932Z,2.87
2023-12-09T16:31:15.290Z,2.79
2023-12-09T16:33:43.456Z,2.79
2023-12-09T16:36:12.214Z,2.74
2023-12-09T16:38:40.237Z,2.78
2023-12-09T16:41:09.937Z,2.77
2023-12-09T16:43:37.948Z,2.80
2023-12-09T16:46:06.453Z,2.78
2023-12-09T16:48:34.667Z,2.77
2023-12-09T16:51:03.470Z,2.81
2023-12-09T16:53:31.632Z,2.87
2023-12-09T16:56:02.412Z,2.96
2023-12-09T16:58:31.959Z,2.94
2023-12-09T17:01:00.473Z,3.00
2023-12-09T17:03:28.711Z,3.02
2023-12-09T17:05:56.999Z,3.08
2023-12-09T17:08:25.164Z,3.09
2023-12-09T17:10:54.470Z,3.10
2023-12-09T17:13:22.489Z,3.11
2023-12-09T17:15:51.983Z,3.16
2023-12-09T17:18:20.378Z,3.13
2023-12-09T17:20:48.520Z,3.11
2023-12-09T17:23:17.147Z,3.15
2023-12-09T17:25:45.248Z,3.12
2023-12-09T17:28:13.406Z,3.09
2023-12-09T17:30:41.525Z,3.12
2023-12-09T17:33:11.174Z,3.04
2023-12-09T17:35:39.404Z,2.97
2023-12-09T17:38:07.421Z,2.99
2023-12-09T17:40:35.414Z,2.92
2023-12-09T17:43:03.902Z,2.85
2023-12-09T17:45:31.973Z,2.87
2023-12-09T17:48:00.325Z,2.87
2023-12-09T17:50:32.496Z,2.78
2023-12-09T17:53:00.610Z,2.72
2023-12-09T17:55:28.621Z,2.73
2023-12-09T17:57:57.349Z,2.79
2023-12-09T18:00:25.696Z,2.74
2023-12-09T18:02:54.131Z,2.61
2023-12-09T18:05:22.273Z,2.56
2023-12-09T18:07:51.739Z,2.65
2023-12-09T18:10:19.817Z,2.64
2023-12-09T18:12:47.886Z,2.54
2023-12-09T18:15:16.083Z,2.53
2023-12-09T18:17:44.412Z,2.56
2023-12-09T18:20:13.072Z,2.58
2023-12-09T18:22:42.866Z,2.51
2023-12-09T18:25:13.653Z,2.43
2023-12-09T18:27:42.694Z,2.42
2023-12-09T18:30:11.888Z,2.41
2023-12-09T18:32:40.230Z,2.41
2023-12-09T18:35:12.112Z,2.38
2023-12-09T18:37:40.640Z,2.46
2023-12-09T18:40:11.056Z,2.37
2023-12-09T18:42:40.808Z,2.30
2023-12-09T18:45:09.577Z,2.32
2023-12-09T18:47:38.706Z,2.38
2023-12-09T18:50:07.764Z,2.39
2023-12-09T18:52:35.817Z,2.29
2023-12-09T18:55:04.278Z,2.38
2023-12-09T18:57:32.623Z,2.27
2023-12-09T19:00:05.370Z,2.25
2023-12-09T19:02:34.279Z,2.31
2023-12-09T19:05:02.906Z,2.24
2023-12-09T19:07:31.424Z,2.22
2023-12-09T19:10:03.823Z,2.14
2023-12-09T19:12:33.912Z,2.12
2023-12-09T19:15:03.551Z,2.20
2023-12-09T19:17:32.375Z,2.21
2023-12-09T19:20:00.787Z,2.25
2023-12-09T19:22:29.213Z,2.19
2023-12-09T19:25:00.398Z,2.40
2023-12-09T19:27:28.501Z,2.29
2023-12-09T19:29:56.767Z,2.13
2023-12-09T19:32:28.040Z,2.18
2023-12-09T19:34:57.300Z,2.19
2023-12-09T19:37:25.397Z,2.15
2023-12-09T19:39:53.565Z,2.23
2023-12-09T19:42:23.632Z,2.19
2023-12-09T19:44:51.756Z,2.20
2023-12-09T19:47:19.936Z,2.33
2023-12-09T19:49:49.450Z,2.19
2023-12-09T19:52:17.627Z,2.11
2023-12-09T19:54:45.714Z,2.17
2023-12-09T19:57:13.888Z,2.27
2023-12-09T19:59:44.214Z,2.16
2023-12-09T20:02:12.294Z,2.08
2023-12-09T20:04:40.501Z,2.19
2023-12-09T20:07:09.949Z,2.07
2023-12-09T20:09:38.060Z,2.07
2023-12-09T20:12:06.802Z,2.12
2023-12-09T20:14:35.002Z,2.15
2023-12-09T20:17:03.354Z,2.20
2023-12-09T20:19:31.558Z,2.18
2023-12-09T20:21:59.601Z,2.20
2023-12-09T20:24:29.100Z,2.17
2023-12-09T20:26:58.069Z,2.13
2023-12-09T20:29:28.019Z,2.13
2023-12-09T20:31:56.114Z,2.17
2023-12-09T20:34:24.229Z,2.20
2023-12-09T20:36:52.783Z,2.11
2023-12-09T20:39:21.404Z,2.17
2023-12-09T20:41:50.949Z,2.12
2023-12-09T20:44:19.006Z,2.14
2023-12-09T20:46:47.459Z,2.13
2023-12-09T20:49:17.950Z,2.16
2023-12-09T20:51:46.845Z,2.23
2023-12-09T20:54:14.944Z,2.30
2023-12-09T20:56:43.143Z,2.28
2023-12-09T20:59:12.624Z,2.40
2023-12-09T21:01:50.161Z,2.35
2023-12-09T21:04:19.245Z,2.50
2023-12-09T21:06:50.082Z,2.58
2023-12-09T21:09:18.507Z,2.49
2023-12-09T21:11:46.678Z,2.51
2023-12-09T21:14:16.399Z,2.52
2023-12-09T21:16:44.677Z,2.58
2023-12-09T21:19:13.288Z,2.63
2023-12-09T21:21:40.861Z,2.59
2023-12-09T21:24:09.320Z,2.59
2023-12-09T21:26:39.715Z,2.59
2023-12-09T21:29:08.036Z,2.63
2023-12-09T21:31:37.815Z,2.64
2023-12-09T21:34:06.641Z,2.67
2023-12-09T21:36:37.543Z,2.57
2023-12-09T21:39:05.710Z,2.68
2023-12-09T21:41:33.835Z,2.66
2023-12-09T21:44:02.005Z,2.57
2023-12-09T21:46:30.546Z,2.61
2023-12-09T21:49:01.001Z,2.64
2023-12-09T21:51:30.074Z,2.54
2023-12-09T21:53:58.280Z,2.47
2023-12-09T21:56:29.254Z,2.48
2023-12-09T21:58:57.596Z,2.57
2023-12-09T22:01:25.794Z,2.45
2023-12-09T22:03:54.047Z,2.62
2023-12-09T22:06:23.566Z,2.61
2023-12-09T22:08:52.227Z,2.59
2023-12-09T22:11:21.369Z,2.56
2023-12-09T22:13:49.756Z,2.58
2023-12-09T22:16:21.240Z,2.53
2023-12-09T22:18:50.056Z,2.61
2023-12-09T22:21:18.577Z,2.62
2023-12-09T22:23:52.057Z,2.63
2023-12-09T22:26:24.176Z,2.70
2023-12-09T22:28:52.499Z,2.64
2023-12-09T22:31:20.800Z,2.65
2023-12-09T22:33:51.537Z,2.68
2023-12-09T22:36:22.082Z,2.78
2023-12-09T22:38:52.233Z,2.86
2023-12-09T22:41:22.258Z,2.83
2023-12-09T22:43:51.059Z,2.68
2023-12-09T22:46:26.234Z,2.64
2023-12-09T22:48:54.481Z,2.63
2023-12-09T22:51:22.934Z,2.58
2023-12-09T22:53:52.644Z,2.66
2023-12-09T22:56:21.621Z,2.58
2023-12-09T22:58:50.110Z,2.64
2023-12-09T23:01:24.009Z,2.52
2023-12-09T23:03:52.649Z,2.49
2023-12-09T23:06:21.678Z,2.63
2023-12-09T23:08:50.058Z,2.55
2023-12-09T23:11:19.904Z,2.63
2023-12-09T23:13:48.025Z,2.74
2023-12-09T23:16:16.163Z,2.67
2023-12-09T23:18:44.546Z,2.66
2023-12-09T23:21:13.075Z,2.63
2023-12-09T23:23:41.239Z,2.61
2023-12-09T23:26:09.396Z,2.57
2023-12-09T23:28:41.219Z,2.61
2023-12-09T23:31:09.297Z,2.77
2023-12-09T23:33:37.551Z,2.60
2023-12-09T23:36:06.598Z,2.64
2023-12-09T23:38:34.714Z,2.67
2023-12-09T23:41:02.781Z,2.68
2023-12-09T23:43:30.999Z,2.71
2023-12-09T23:46:00.483Z,2.62
2023-12-09T23:48:28.642Z,2.74
2023-12-09T23:50:56.728Z,2.74
2023-12-09T23:53:27.206Z,2.60
2023-12-09T23:55:55.295Z,2.58
2023-12-09T23:58:23.436Z,2.65
